METAR Data
IDs: Format: Raw Decoded Include TAF

Data at: 1806 UTC 16 Oct 2021

KRWV 161755Z AUTO 02009G16KT 360V060 10SM CLR 21/05 A3034 RMK AO2 T02100050 10214 20108
KRWV 161735Z AUTO 02008G15KT 360V070 10SM CLR 21/05 A3035 RMK AO2 T02070053
KRWV 161715Z AUTO 03009G18KT 10SM CLR 20/05 A3036 RMK AO2 T02040047
KRWV 161655Z AUTO 01012G20KT 10SM CLR 20/05 A3036 RMK AO2 T02020048
KRWV 161635Z AUTO 03011G20KT 350V050 10SM CLR 20/05 A3036 RMK AO2 T01990048
KRWV 161615Z AUTO 05007G16KT 10SM CLR 19/07 A3037 RMK AO2
KRWV 161555Z AUTO 04010KT 010V070 10SM CLR 19/07 A3037 RMK AO2 T01860069
KRWV 161535Z AUTO 06009KT 10SM CLR 18/07 A3037 RMK AO2 T01850073
KRWV 161515Z AUTO 03009KT 360V080 10SM CLR 18/07 A3037 RMK AO2 T01780074
KRWV 161455Z AUTO 04007G14KT 010V080 10SM CLR 17/08 A3037 RMK AO2 T01700077
KRWV 161435Z AUTO 01008G15KT 10SM CLR 16/08 A3037 RMK AO2 T01610083
KRWV 161415Z AUTO 01006KT 10SM CLR 15/09 A3036 RMK AO2 T01510091
KRWV 161355Z AUTO 36009KT 10SM CLR 14/09 A3035 RMK AO2 T01420090
KRWV 161335Z AUTO 35005KT 10SM CLR 13/09 A3035 RMK AO2 T01310091
KRWV 161315Z AUTO 35005KT 10SM CLR 12/09 A3033 RMK AO2 T01190089
KRWV 161255Z AUTO 34004KT 10SM CLR 11/08 A3033 RMK AO2 T01100083
KRWV 161235Z AUTO 35003KT 10SM CLR 11/08 A3032 RMK AO2 T01100081
KRWV 161215Z AUTO 36003KT 10SM CLR 11/08 A3032 RMK AO2 T01110082
KRWV 161155Z AUTO 35004KT 10SM CLR 11/08 A3031 RMK AO2 T01120081 10171 20111 70023
KRWV 161135Z AUTO 36004KT 10SM CLR 12/08 A3030 RMK AO2 T01190083
KRWV 161115Z AUTO 35005KT 10SM CLR 12/08 A3029 RMK AO2 T01230083
KRWV 161055Z AUTO 36006KT 10SM CLR 13/08 A3028 RMK AO2 T01250085
KRWV 161035Z AUTO 35007KT 10SM CLR 13/09 A3028 RMK AO2 T01290085
KRWV 161015Z AUTO 35008KT 10SM CLR 13/08 A3027 RMK AO2 T01340084
KRWV 160955Z AUTO 35009KT 10SM CLR 13/08 A3027 RMK AO2 T01350085
KRWV 160935Z AUTO 36006KT 10SM CLR 14/08 A3026 RMK AO2 T01380084
KRWV 160915Z AUTO 36007KT 10SM CLR 14/08 A3026 RMK AO2 T01420084
KRWV 160855Z AUTO 36009KT 10SM CLR 14/09 A3025 RMK AO2 T01450085
KRWV 160835Z AUTO 36008G14KT 10SM CLR 15/09 A3025 RMK AO2 T01480087
KRWV 160815Z AUTO 36008KT 10SM CLR 15/09 A3024 RMK AO2
KRWV 160755Z AUTO 36009G17KT 10SM CLR 15/09 A3023 RMK AO2 T01530089
KRWV 160735Z AUTO 36010G16KT 10SM CLR 15/09 A3023 RMK AO2 T01540093
KRWV 160715Z AUTO 36009KT 10SM CLR 16/10 A3023 RMK AO2 T01560096
KRWV 160655Z AUTO 36010G14KT 330V030 10SM CLR 16/10 A3024 RMK AO2 T01620096
KRWV 160635Z AUTO 35008KT 10SM CLR 16/10 A3024 RMK AO2 T01620101
KRWV 160615Z AUTO 36008KT 10SM CLR 17/10 A3023 RMK AO2 T01680102
KRWV 160555Z AUTO 36008G15KT 10SM CLR 17/10 A3022 RMK AO2 T01720102 10229 20172
KRWV 160535Z AUTO 36008KT 10SM CLR 18/10 A3022 RMK AO2 T01750104
KRWV 160515Z AUTO 36008KT 10SM CLR 18/11 A3022 RMK AO2 T01800106
KRWV 160455Z AUTO 36009KT 10SM CLR 18/11 A3021 RMK AO2 T01830110
KRWV 160435Z AUTO 01008KT 10SM CLR 19/11 A3021 RMK AO2 T01870114
KRWV 160415Z AUTO 36008G15KT 10SM CLR 19/12 A3020 RMK AO2 T01900120
KRWV 160355Z AUTO 35011G18KT 10SM CLR 19/12 A3019 RMK AO2 T01950122
KRWV 160335Z AUTO 36010KT 10SM CLR 20/13 A3018 RMK AO2 T01980128
KRWV 160315Z AUTO 35010G16KT 10SM CLR 20/13 A3016 RMK AO2 T02000133
KRWV 160255Z AUTO 36010G16KT 10SM CLR 20/14 A3014 RMK AO2 T02030136
KRWV 160235Z AUTO 35010G15KT 10SM CLR 20/14 A3013 RMK AO2 T02040140
KRWV 160215Z AUTO 35008KT 10SM CLR 20/14 A3011 RMK AO2 T02040145
KRWV 160155Z AUTO 35010KT 10SM CLR 21/15 A3011 RMK AO2 T02090146
KRWV 160135Z AUTO 35008KT 10SM CLR 21/15 A3010 RMK AO2 T02120149
KRWV 160115Z AUTO 35010G14KT 10SM CLR 21/15 A3009 RMK AO2 T02140155
KRWV 160055Z AUTO 35006KT 10SM CLR 21/16 A3008 RMK AO2 T02140160
KRWV 160035Z AUTO 35009G15KT 10SM CLR 22/16 A3007 RMK AO2 T02180160
KRWV 160015Z AUTO 35010G16KT 10SM CLR 22/16 A3005 RMK AO2 T02220162
KRWV 152355Z AUTO 35011G18KT 10SM CLR 23/16 A3005 RMK AO2 T02300163 10310 20229 403100195 60001
KRWV 152335Z AUTO 35016G22KT 10SM CLR 24/17 A3003 RMK AO2 T02380171
KRWV 152315Z AUTO 36013G18KT 10SM CLR 24/17 A3002 RMK AO2 T02450173
KRWV 152255Z AUTO 35012G15KT 10SM CLR 24/17 A3002 RMK AO2 T02440174
KRWV 152235Z AUTO 35011G18KT 10SM CLR 25/17 A3001 RMK AO2 T02520172
KRWV 152215Z AUTO 35013G25KT 10SM CLR 25/17 A3000 RMK AO2 T02530169
KRWV 152155Z AUTO 34015G21KT 10SM CLR 26/18 A2999 RMK AO2 T02630180
KRWV 152135Z AUTO 34017G22KT 10SM SCT120 26/18 A2998 RMK AO2 T02570180
KRWV 152115Z AUTO 33016G24KT 10SM SCT120 27/19 A2997 RMK AO2 T02720188
KRWV 152055Z AUTO 35019G26KT 10SM SCT120 28/20 A2996 RMK AO2 T02830201 60001
KRWV 152035Z AUTO 35015G23KT 10SM SCT034 BKN044 BKN110 28/21 A2996 RMK AO2 T02820209
KRWV 152015Z AUTO 34012G18KT 10SM SCT030 SCT037 BKN044 29/22 A2995 RMK AO2 T02870224
KRWV 151955Z AUTO 32007KT 10SM SCT033 SCT043 BKN050 29/22 A2995 RMK AO2 T02900223
KRWV 151935Z AUTO 30006KT 10SM DZ SCT030 BKN037 BKN048 30/24 A2995 RMK AO2 T03000236
KRWV 151915Z AUTO 32006KT 10SM SCT030 BKN037 BKN044 30/23 A2995 RMK AO2 T02980231
KRWV 151855Z AUTO 28005KT 10SM SCT027 SCT049 SCT090 31/23 A2996 RMK AO2 P0001 T03050233
KRWV 151835Z AUTO 28007KT 10SM SCT025 SCT037 SCT050 30/23 A2997 RMK AO2 P0001 T03030234
KRWV 151815Z AUTO 27008KT 10SM SCT025 SCT037 SCT050 29/24 A2997 RMK AO2 P0001 T02910237
KRWV 151755Z AUTO 28010KT 10SM SCT022 29/24 A2998 RMK AO2 P0002 T02920235 10294 20196 60022
KRWV 151735Z AUTO 30009KT 10SM BKN020 BKN027 BKN038 29/24 A2998 RMK AO2 P0002 T02870239
KRWV 151715Z AUTO 25007KT 10SM BKN020 BKN025 OVC038 28/24 A2999 RMK AO2 P0001 T02790236
KRWV 151655Z AUTO 27004KT 10SM SCT015 BKN023 OVC031 28/24 A2999 RMK AO2 P0003 T02800243
KRWV 151635Z AUTO 24004KT 10SM BKN015 27/24 A2999 RMK AO2 P0002 T02680240
KRWV 151615Z AUTO 24008KT 10SM BKN013 OVC017 26/24 A2999 RMK AO2 P0001 T02600241
KRWV 151555Z AUTO 24008KT 10SM OVC007 26/25 A2999 RMK AO2 P0004
KRWV 151535Z AUTO 21003KT 10SM OVC007 25/24 A2998 RMK AO2 P0002 T02520241
KRWV 151515Z AUTO 24005KT 10SM OVC007 25/24 A2998 RMK AO2 P0001 T02470237
KRWV 151455Z AUTO 22003KT 10SM OVC009 24/23 A2997 RMK AO2 P0004 T02360229 60013
KRWV 151435Z AUTO 21004KT 10SM BKN011 BKN014 BKN050 23/23 A2997 RMK AO2 P0002 T02320225
KRWV 151415Z AUTO 28003KT 10SM BKN015 OVC026 23/22 A2996 RMK AO2 P0001 T02260222
KRWV 151355Z AUTO 00000KT 10SM BKN019 BKN027 OVC045 22/22 A2996 RMK AO2 P0005 T02200218
KRWV 151335Z AUTO 00000KT 10SM BKN010 BKN019 OVC050 22/21 A2995 RMK AO2 P0003 T02150213
KRWV 151315Z AUTO 00000KT 10SM BKN012 OVC049 21/21 A2994 RMK AO2 P0002 T02120210
KRWV 151255Z AUTO 00000KT 10SM BKN014 OVC047 20/20 A2993 RMK AO2 P0004 T02040202
KRWV 151235Z AUTO 00000KT 4SM BR OVC014 20/20 A2993 RMK AO2 P0003 T02030201
KRWV 151215Z AUTO 00000KT 3/4SM BR OVC009 20/20 A2992 RMK AO2 P0001 T02000198
KRWV 151155Z AUTO 00000KT 1/2SM FG BKN003 OVC009 20/20 A2991 RMK AO2 P0006 T01980196 10215 20195 60057 70124
KRWV 151135Z AUTO 00000KT 1/2SM FG OVC003 20/20 A2991 RMK AO2 P0004 T02000199
KRWV 151115Z AUTO 00000KT 1SM BR OVC006 20/20 A2990 RMK AO2 P0002 T02000198
KRWV 151055Z AUTO 00000KT 2 1/2SM BR CLR 20/20 A2990 RMK AO2 P0006 T02010199
KRWV 151035Z AUTO 00000KT 3 1/2SM BR CLR 20/20 A2989 RMK AO2 P0004 T02040203
KRWV 151015Z AUTO 22003KT 5SM BR CLR 20/20 A2989 RMK AO2 P0002 T02050203
KRWV 150955Z AUTO 00000KT 7SM CLR 21/20 A2988 RMK AO2 P0008 T02060205
KRWV 150935Z AUTO 00000KT 1/2SM FG BKN012 20/20 A2988 RMK AO2 P0006 T02040202
KRWV 150915Z AUTO 00000KT 3/4SM BR BKN003 OVC012 20/20 A2988 RMK AO2 P0003 T02020200
KRWV 150855Z AUTO 00000KT 1/2SM FG OVC003 20/20 A2988 RMK AO2 P0011 T02040202 60036
KRWV 150835Z AUTO 00000KT 3/4SM BR VV005 20/20 A2988 RMK AO2 P0008 T02050203
KRWV 150815Z AUTO 00000KT 1 1/4SM BR BKN002 21/21 A2988 RMK AO2 P0004 T02070205
KRWV 150755Z AUTO 00000KT 1/2SM FG OVC002 21/20 A2988 RMK AO2 P0016 T02060204
KRWV 150735Z AUTO 00000KT 1/2SM FG OVC002 21/21 A2988 RMK AO2 P0011 T02100208
KRWV 150715Z AUTO 00000KT 3/4SM BR VV005 21/21 A2988 RMK AO2 P0006 T02100208
KRWV 150655Z AUTO 00000KT 3 1/2SM BR CLR 21/21 A2988 RMK AO2 P0009 T02120210
KRWV 150635Z AUTO 00000KT 5SM BR CLR 21/21 A2988 RMK AO2 P0005 T02120209
KRWV 150615Z AUTO 00000KT 5SM BR SCT018 21/21 A2988 RMK AO2 P0002 T02140210